Time;durP1;ratioP1;P1;durP2;ratioP2;P2;SDS_P1;SDS_P2;PMS_P1;PMS_P2;Temp;Humidity;BMP_temperature;BMP_pressure;BME280_temperature;BME280_humidity;BME280_pressure;Samples;Min_cycle;Max_cycle;Signal;HPM_P1;HPM_P2
2022/09/25 00:04:37;;;;;;;26.90;23.10;;;;;;;5.73;76.89;99319.71;429770;1273;145441;-61
2022/09/25 00:14:43;;;;;;;24.00;21.40;;;;;;;5.73;77.09;99305.83;429499;1273;143257;-62
2022/09/25 00:24:49;;;;;;;29.40;23.70;;;;;;;5.55;76.97;99295.90;429413;1275;142918;-61
2022/09/25 00:34:55;;;;;;;24.10;21.50;;;;;;;5.47;77.32;99291.41;430819;1273;144102;-61
2022/09/25 00:45:02;;;;;;;27.60;24.60;;;;;;;5.41;77.95;99286.67;430072;1273;143895;-62
2022/09/25 00:55:11;;;;;;;22.60;19.70;;;;;;;5.52;78.80;99284.59;440722;1272;194362;-62
2022/09/25 01:05:21;;;;;;;21.60;18.40;;;;;;;5.41;78.01;99280.61;446171;1270;143146;-62
2022/09/25 01:15:36;;;;;;;22.90;20.40;;;;;;;5.16;77.35;99280.70;447017;1273;143337;-63
2022/09/25 01:25:56;;;;;;;23.30;20.20;;;;;;;4.99;78.00;99276.67;447027;1273;202336;-63
2022/09/25 01:36:08;;;;;;;23.70;21.10;;;;;;;5.13;79.49;99271.48;446625;1274;142672;-63
2022/09/25 01:46:18;;;;;;;24.50;21.60;;;;;;;5.27;80.02;99274.32;446761;1274;142767;-63
2022/09/25 01:56:32;;;;;;;23.20;20.40;;;;;;;5.29;79.99;99274.20;445809;1275;145997;-63
2022/09/25 02:06:43;;;;;;;19.30;17.20;;;;;;;5.07;79.20;99275.42;446161;1275;142978;-63
2022/09/25 02:16:54;;;;;;;20.10;16.60;;;;;;;4.68;78.38;99274.38;446200;1275;143912;-63
2022/09/25 02:27:00;;;;;;;18.40;15.20;;;;;;;4.39;77.92;99273.21;446007;1274;143048;-61
2022/09/25 02:37:12;;;;;;;17.70;15.80;;;;;;;4.15;78.11;99267.64;446758;1274;144377;-62
2022/09/25 02:47:31;;;;;;;19.60;17.10;;;;;;;3.95;78.45;99258.45;446006;1273;143174;-62
2022/09/25 02:57:42;;;;;;;23.30;18.80;;;;;;;3.77;78.43;99246.00;447062;1273;143754;-62
2022/09/25 03:18:11;;;;;;;20.70;17.50;;;;;;;3.47;78.83;99249.31;447006;1273;145366;-63
2022/09/25 03:28:17;;;;;;;24.90;18.60;;;;;;;3.40;79.39;99239.39;447034;1273;201554;-63
2022/09/25 03:38:23;;;;;;;25.70;20.10;;;;;;;3.37;80.13;99234.98;446002;1274;142432;-63
2022/09/25 03:48:28;;;;;;;22.60;19.20;;;;;;;3.39;80.46;99235.98;445686;1272;142327;-62
2022/09/25 03:58:34;;;;;;;21.80;19.20;;;;;;;3.42;81.10;99237.05;447012;1273;145259;-62
2022/09/25 04:08:40;;;;;;;25.50;17.60;;;;;;;3.43;81.18;99245.48;446190;1273;143063;-62
2022/09/25 04:18:46;;;;;;;21.60;18.30;;;;;;;3.26;80.74;99249.80;447057;1273;143247;-62
2022/09/25 04:28:52;;;;;;;23.50;20.30;;;;;;;3.21;81.08;99242.36;446970;1273;200837;-62
2022/09/25 04:38:57;;;;;;;20.90;17.60;;;;;;;3.35;82.10;99238.20;446276;1272;184768;-62
2022/09/25 04:49:03;;;;;;;21.10;17.10;;;;;;;3.34;81.48;99242.52;447022;1273;153483;-62
2022/09/25 04:59:10;;;;;;;23.40;20.90;;;;;;;3.47;81.90;99231.31;446252;1272;144354;-65
2022/09/25 05:09:16;;;;;;;23.80;21.20;;;;;;;3.99;83.42;99227.94;447048;1273;145312;-63
2022/09/25 05:19:22;;;;;;;22.90;20.30;;;;;;;4.39;83.39;99233.19;446995;1273;142738;-62
2022/09/25 05:29:27;;;;;;;26.30;21.60;;;;;;;4.94;83.74;99242.50;446017;1273;142556;-63
2022/09/25 05:39:33;;;;;;;25.50;19.60;;;;;;;8.43;83.25;99243.42;446763;1274;142931;-62
2022/09/25 05:49:38;;;;;;;21.90;16.10;;;;;;;12.79;75.81;99235.40;439691;1274;145453;-63
2022/09/25 05:59:44;;;;;;;20.60;18.20;;;;;;;14.18;70.57;99229.33;429250;1273;146203;-62
2022/09/25 06:09:50;;;;;;;17.80;15.90;;;;;;;12.98;68.84;99227.54;429794;1274;144147;-62
2022/09/25 06:19:55;;;;;;;19.50;17.50;;;;;;;12.40;69.01;99235.73;435141;1273;143911;-62
2022/09/25 06:30:01;;;;;;;19.50;17.20;;;;;;;12.58;68.25;99234.84;446937;1273;142450;-62
2022/09/25 06:40:09;;;;;;;18.80;17.00;;;;;;;13.38;67.16;99225.95;446954;1273;146481;-62
2022/09/25 06:50:14;;;;;;;;;;;;;;;13.25;66.14;99224.44;446227;1273;143297;-63
2022/09/25 07:00:20;;;;;;;16.30;14.50;;;;;;;16.28;64.73;99228.33;446687;1275;129747;-62
2022/09/25 07:10:26;;;;;;;17.20;15.50;;;;;;;22.06;59.99;99221.52;447043;1273;146108;-62
2022/09/25 07:20:31;;;;;;;16.10;14.60;;;;;;;27.59;52.51;99209.18;446014;1272;143471;-62
2022/09/25 07:30:37;;;;;;;14.00;12.70;;;;;;;32.36;45.69;99205.48;447023;1273;141748;-63
2022/09/25 07:40:43;;;;;;;14.20;13.00;;;;;;;35.39;39.96;99207.61;447039;1273;142251;-61
2022/09/25 07:50:49;;;;;;;14.30;12.90;;;;;;;37.82;35.92;99189.02;446307;1273;143675;-62
2022/09/25 08:00:58;;;;;;;13.30;12.00;;;;;;;39.00;32.49;99184.55;447040;1273;143469;-61
2022/09/25 08:11:06;;;;;;;12.50;11.60;;;;;;;39.22;30.44;99182.13;446305;1273;142263;-62
2022/09/25 08:21:13;;;;;;;13.80;12.80;;;;;;;39.83;28.24;99170.95;446870;1273;143236;-62
2022/09/25 08:31:20;;;;;;;12.30;11.20;;;;;;;39.72;26.99;99177.33;447032;1272;141724;-61
2022/09/25 08:41:29;;;;;;;9.20;8.50;;;;;;;38.01;26.56;99159.19;446193;1273;145194;-61
2022/09/25 08:51:39;;;;;;;10.40;9.40;;;;;;;36.67;26.52;99157.86;446924;1272;190328;-61
2022/09/25 09:01:52;;;;;;;14.70;7.90;;;;;;;31.47;27.87;99149.70;447054;1271;142200;-62
2022/09/25 09:12:02;;;;;;;7.60;6.80;;;;;;;27.39;30.30;99150.73;446211;1273;142302;-62
2022/09/25 09:22:12;;;;;;;9.00;8.20;;;;;;;25.05;32.54;99139.16;441584;1273;196358;-62
2022/09/25 09:32:33;;;;;;;7.90;7.20;;;;;;;23.32;34.07;99129.27;433806;1273;143104;-63
2022/09/25 09:42:50;;;;;;;7.20;6.70;;;;;;;22.20;35.25;99121.45;444033;1274;141711;-62
2022/09/25 09:53:02;;;;;;;8.90;5.90;;;;;;;21.58;36.31;99113.91;434562;1271;142299;-62
2022/09/25 10:03:20;;;;;;;6.70;5.50;;;;;;;21.25;36.73;99108.05;443916;1274;183844;-63
2022/09/25 10:13:31;;;;;;;5.40;4.80;;;;;;;21.19;36.95;99104.64;436716;1273;142321;-62
2022/09/25 10:23:41;;;;;;;7.20;6.10;;;;;;;21.04;37.23;99097.70;436157;1273;142884;-61
2022/09/25 10:34:03;;;;;;;8.00;5.60;;;;;;;20.48;38.10;99085.66;438076;1272;184845;-62
2022/09/25 10:44:22;;;;;;;7.30;4.90;;;;;;;19.69;39.09;99074.27;440132;1272;143647;-62
2022/09/25 10:54:28;;;;;;;6.50;5.70;;;;;;;19.04;39.30;99069.81;432744;1273;145265;-62
2022/09/25 11:04:35;;;;;;;6.40;5.80;;;;;;;18.59;40.40;99062.46;434747;1273;142038;-61
2022/09/25 11:14:54;;;;;;;6.80;6.10;;;;;;;18.15;41.25;99059.09;446166;1272;147379;-62
2022/09/25 11:25:14;;;;;;;6.10;5.50;;;;;;;18.26;42.08;99052.13;432433;1272;143927;-62
2022/09/25 11:35:44;;;;;;;5.20;4.70;;;;;;;18.17;41.90;99052.51;432345;1273;142497;-63
2022/09/25 11:45:55;;;;;;;5.70;5.10;;;;;;;18.19;42.32;99047.52;432305;1273;144549;-63
2022/09/25 11:56:16;;;;;;;6.00;4.80;;;;;;;18.14;42.25;99028.38;430564;1273;142178;-64
2022/09/25 12:06:38;;;;;;;4.90;4.40;;;;;;;18.00;42.37;99025.70;429565;1274;142664;-63
2022/09/25 12:16:52;;;;;;;5.80;5.20;;;;;;;18.10;43.07;99010.02;444739;1272;142041;-62
2022/09/25 12:27:08;;;;;;;5.50;4.40;;;;;;;18.01;42.65;99001.89;432920;1273;146398;-61
2022/09/25 12:37:28;;;;;;;10.50;4.50;;;;;;;17.89;43.43;98997.25;429641;1273;146843;-63
2022/09/25 12:47:40;;;;;;;4.70;3.90;;;;;;;17.87;43.42;98992.73;434091;1274;146045;-61
2022/09/25 12:57:50;;;;;;;3.50;3.20;;;;;;;17.82;42.77;98995.02;430535;1275;141412;-62
2022/09/25 13:08:05;;;;;;;5.10;4.50;;;;;;;18.03;42.81;98986.11;440466;1273;141887;-62
2022/09/25 13:18:23;;;;;;;3.90;3.60;;;;;;;18.31;42.89;98979.49;440656;1273;148462;-62
2022/09/25 13:28:32;;;;;;;4.80;4.20;;;;;;;18.37;42.51;98970.14;430022;1273;141376;-62
2022/09/25 13:49:34;;;;;;;3.30;2.90;;;;;;;18.39;42.13;98956.48;438556;1275;143254;-62
2022/09/25 13:59:41;;;;;;;4.00;3.60;;;;;;;18.29;42.43;98948.97;440233;1274;141984;-62
2022/09/25 14:09:52;;;;;;;3.60;3.30;;;;;;;18.15;42.33;98941.94;429196;1274;142663;-62
2022/09/25 14:19:59;;;;;;;4.40;3.20;;;;;;;17.88;42.89;98939.63;446627;1275;142508;-62
2022/09/25 14:30:12;;;;;;;6.90;3.30;;;;;;;17.49;42.70;98936.21;442323;1274;143055;-62
2022/09/25 14:40:23;;;;;;;3.50;3.20;;;;;;;17.58;43.98;98931.09;430383;1274;142839;-62
2022/09/25 14:50:32;;;;;;;5.20;3.90;;;;;;;17.71;44.20;98921.45;430270;1275;145672;-63
2022/09/25 15:00:46;;;;;;;3.70;3.40;;;;;;;17.76;45.09;98916.58;429904;1274;142571;-62
2022/09/25 15:11:02;;;;;;;4.50;3.70;;;;;;;17.70;45.84;98913.38;435535;1274;142130;-63
2022/09/25 15:21:13;;;;;;;9.90;5.40;;;;;;;17.48;46.30;98910.16;437607;1275;152727;-62
2022/09/25 15:31:20;;;;;;;6.10;4.50;;;;;;;17.20;47.26;98904.69;432096;1275;141965;-63
2022/09/25 15:41:27;;;;;;;11.00;4.70;;;;;;;16.95;47.30;98894.88;428982;1275;146793;-63
2022/09/25 15:51:35;;;;;;;4.00;3.60;;;;;;;16.66;47.44;98886.04;429968;1275;141809;-62
2022/09/25 16:12:22;;;;;;;6.30;4.20;;;;;;;15.71;50.46;98887.93;429328;1275;143263;-63
2022/09/25 16:22:30;;;;;;;9.50;4.00;;;;;;;15.08;51.91;98889.55;429655;1273;142461;-62
2022/09/25 16:32:36;;;;;;;9.90;4.80;;;;;;;14.41;54.12;98880.95;429861;1274;142373;-62
2022/09/25 16:42:42;;;;;;;8.10;5.70;;;;;;;13.77;55.63;98882.42;430168;1275;141741;-64
2022/09/25 16:52:48;;;;;;;10.40;8.10;;;;;;;13.10;57.27;98887.44;429991;1273;142106;-62
2022/09/25 17:02:55;;;;;;;12.30;7.00;;;;;;;12.50;59.26;98895.77;429179;1273;142773;-61
2022/09/25 17:13:02;;;;;;;24.00;13.50;;;;;;;11.97;60.88;98894.80;429688;1273;147492;-63
2022/09/25 17:23:09;;;;;;;36.40;25.10;;;;;;;11.49;61.85;98890.88;429068;1274;144102;-62
2022/09/25 17:33:17;;;;;;;33.90;20.20;;;;;;;11.06;62.93;98884.17;446810;1270;142975;-62
2022/09/25 17:43:23;;;;;;;27.20;22.00;;;;;;;10.64;64.00;98881.07;447029;1271;144256;-63
2022/09/25 17:53:30;;;;;;;40.40;29.90;;;;;;;10.31;64.75;98879.48;445882;1274;143858;-63
2022/09/25 18:03:36;;;;;;;59.70;43.40;;;;;;;10.02;65.41;98879.02;447028;1271;143073;-63
2022/09/25 18:13:42;;;;;;;41.50;25.60;;;;;;;9.75;66.25;98881.38;446791;1274;144650;-63
2022/09/25 18:23:48;;;;;;;25.00;19.90;;;;;;;9.50;67.11;98873.71;446310;1272;143887;-62
2022/09/25 18:33:54;;;;;;;28.80;19.90;;;;;;;9.24;67.50;98876.80;446543;1274;142465;-63
2022/09/25 18:44:00;;;;;;;39.00;22.30;;;;;;;8.99;68.07;98877.60;446095;1274;144296;-62
2022/09/25 18:54:07;;;;;;;33.10;25.00;;;;;;;8.81;68.38;98881.80;441185;1274;142370;-61
2022/09/25 19:04:16;;;;;;;52.20;33.90;;;;;;;8.55;69.15;98885.77;434199;1273;143972;-62
2022/09/25 19:14:22;;;;;;;40.10;28.30;;;;;;;8.30;70.43;98886.04;429728;1273;144152;-60
2022/09/25 19:24:29;;;;;;;39.50;25.70;;;;;;;8.10;70.84;98887.99;429379;1273;147889;-63
2022/09/25 19:34:35;;;;;;;41.00;28.30;;;;;;;7.92;71.57;98880.42;429612;1273;142817;-62
2022/09/25 19:44:41;;;;;;;44.20;27.30;;;;;;;7.75;72.09;98872.11;429810;1273;144344;-63
2022/09/25 19:54:47;;;;;;;38.10;28.10;;;;;;;7.55;71.96;98876.28;432902;1273;141717;-62
2022/09/25 20:04:53;;;;;;;41.10;28.50;;;;;;;7.40;72.27;98870.14;430799;1273;144196;-64
2022/09/25 20:14:58;;;;;;;46.80;30.90;;;;;;;7.25;72.75;98869.11;429839;1273;147097;-62
2022/09/25 20:25:04;;;;;;;46.20;31.90;;;;;;;7.13;73.30;98870.23;429569;1272;143535;-65
2022/09/25 20:35:11;;;;;;;43.10;30.80;;;;;;;7.02;73.99;98875.35;430072;1273;143140;-64
2022/09/25 20:45:17;;;;;;;43.30;31.60;;;;;;;6.91;73.99;98869.77;431968;1274;142392;-62
2022/09/25 20:55:23;;;;;;;40.20;31.10;;;;;;;6.78;74.24;98864.83;431547;1273;155413;-60
2022/09/25 21:05:28;;;;;;;50.50;37.40;;;;;;;6.71;74.85;98861.73;433219;1273;145467;-62
2022/09/25 21:15:36;;;;;;;53.60;39.60;;;;;;;6.58;74.71;98869.61;435625;1274;146797;-63
2022/09/25 21:25:41;;;;;;;46.60;30.80;;;;;;;6.47;74.96;98863.30;447025;1273;142899;-64
2022/09/25 21:35:49;;;;;;;38.00;29.90;;;;;;;6.42;75.58;98857.31;440702;1273;143474;-62
2022/09/25 21:45:58;;;;;;;45.00;34.20;;;;;;;6.37;75.85;98853.64;442756;1275;143435;-63
2022/09/25 21:56:06;;;;;;;50.60;36.00;;;;;;;6.27;75.58;98843.08;439418;1274;142923;-61
2022/09/25 22:06:14;;;;;;;44.30;34.70;;;;;;;6.17;75.63;98834.30;437749;1273;142505;-62
2022/09/25 22:16:22;;;;;;;44.20;32.10;;;;;;;6.08;75.96;98822.29;447060;1273;202929;-62
2022/09/25 22:26:29;;;;;;;34.90;28.40;;;;;;;6.15;77.73;98804.70;446196;1271;144621;-62
2022/09/25 22:36:36;;;;;;;37.00;29.50;;;;;;;6.07;77.23;98796.08;447016;1273;144822;-62
2022/09/25 22:46:41;;;;;;;37.30;29.60;;;;;;;5.95;76.72;98792.55;446958;1273;142348;-62
2022/09/25 22:56:47;;;;;;;42.20;30.90;;;;;;;5.87;76.83;98787.31;446247;1273;142651;-63
2022/09/25 23:06:53;;;;;;;38.80;29.20;;;;;;;5.77;76.80;98778.15;447046;1273;143275;-63
2022/09/25 23:17:00;;;;;;;39.10;27.30;;;;;;;5.67;76.86;98772.60;447010;1273;146064;-62
2022/09/25 23:27:05;;;;;;;34.50;26.70;;;;;;;5.67;77.79;98762.40;447062;1273;143086;-63
2022/09/25 23:37:12;;;;;;;38.40;28.10;;;;;;;5.65;78.00;98754.33;446767;1274;145737;-62
2022/09/25 23:47:18;;;;;;;35.50;24.60;;;;;;;5.52;77.68;98752.77;445659;1275;143780;-63
2022/09/25 23:57:23;;;;;;;32.40;24.60;;;;;;;5.43;77.82;98738.23;446911;1274;143024;-61
